createdAt,value
2018-05-15T00:01:39.930Z,10.10
2018-05-15T00:04:08.221Z,7.80
2018-05-15T00:06:36.501Z,9.87
2018-05-15T00:09:04.792Z,8.27
2018-05-15T00:11:33.089Z,8.33
2018-05-15T00:14:01.371Z,9.53
2018-05-15T00:16:29.650Z,8.27
2018-05-15T00:18:57.933Z,8.37
2018-05-15T00:21:26.207Z,8.00
2018-05-15T00:23:54.501Z,7.47
2018-05-15T00:26:22.777Z,8.87
2018-05-15T00:28:51.043Z,9.20
2018-05-15T00:31:19.333Z,7.80
2018-05-15T00:33:47.603Z,8.07
2018-05-15T00:36:15.884Z,8.77
2018-05-15T00:38:44.182Z,7.70
2018-05-15T00:41:12.494Z,8.33
2018-05-15T00:43:40.756Z,8.00
2018-05-15T00:46:09.029Z,6.80
2018-05-15T00:48:37.303Z,8.33
2018-05-15T00:51:06.332Z,6.50
2018-05-15T00:53:34.634Z,7.57
2018-05-15T00:56:02.915Z,7.43
2018-05-15T00:58:31.189Z,7.13
2018-05-15T01:00:59.465Z,7.87
2018-05-15T01:03:28.376Z,7.70
2018-05-15T01:05:58.579Z,7.87
2018-05-15T01:08:26.850Z,8.03
2018-05-15T01:10:55.107Z,7.13
2018-05-15T01:13:23.384Z,8.33
2018-05-15T01:15:51.681Z,7.80
2018-05-15T01:18:19.952Z,7.63
2018-05-15T01:20:48.255Z,7.00
2018-05-15T01:23:16.548Z,7.40
2018-05-15T01:25:44.829Z,7.30
2018-05-15T01:28:13.106Z,6.13
2018-05-15T01:30:41.373Z,6.73
2018-05-15T01:33:09.680Z,5.50
2018-05-15T01:35:37.937Z,6.20
2018-05-15T01:38:06.198Z,7.47
2018-05-15T01:40:34.720Z,6.63
2018-05-15T01:43:03.785Z,6.80
2018-05-15T01:45:32.117Z,6.80
2018-05-15T01:48:01.163Z,6.27
2018-05-15T01:50:29.427Z,6.90
2018-05-15T01:53:00.518Z,7.13
2018-05-15T01:55:28.814Z,6.73
2018-05-15T01:57:57.111Z,6.80
2018-05-15T02:00:25.363Z,5.80
2018-05-15T02:02:53.636Z,7.03
2018-05-15T02:05:21.938Z,5.83
2018-05-15T02:07:50.222Z,6.87
2018-05-15T02:10:18.495Z,6.10
2018-05-15T02:12:46.768Z,6.50
2018-05-15T02:15:15.040Z,6.67
2018-05-15T02:17:43.323Z,6.67
2018-05-15T02:20:11.659Z,5.80
2018-05-15T02:22:39.910Z,6.10
2018-05-15T02:25:08.190Z,6.13
2018-05-15T02:27:36.452Z,5.83
2018-05-15T02:30:04.731Z,6.47
2018-05-15T02:32:32.996Z,6.37
2018-05-15T02:35:01.296Z,6.27
2018-05-15T02:37:29.594Z,6.23
2018-05-15T02:39:57.857Z,7.03
2018-05-15T02:42:26.157Z,7.63
2018-05-15T02:44:54.410Z,6.83
2018-05-15T02:47:22.711Z,6.80
2018-05-15T02:49:51.022Z,8.17
2018-05-15T02:52:19.312Z,7.10
2018-05-15T02:54:47.655Z,9.63
2018-05-15T02:57:16.680Z,7.60
2018-05-15T02:59:44.983Z,7.07
2018-05-15T03:02:13.242Z,7.57
2018-05-15T03:04:41.514Z,9.47
2018-05-15T03:07:09.788Z,8.17
2018-05-15T03:09:38.074Z,9.00
2018-05-15T03:12:06.352Z,7.10
2018-05-15T03:14:34.611Z,9.57
2018-05-15T03:17:02.879Z,4.90
2018-05-15T03:19:31.927Z,4.97
2018-05-15T03:22:00.962Z,4.77
2018-05-15T03:24:29.231Z,5.10
2018-05-15T03:26:58.265Z,5.83
2018-05-15T03:29:26.525Z,6.70
2018-05-15T03:31:54.825Z,7.20
2018-05-15T03:34:23.082Z,6.63
2018-05-15T03:36:51.370Z,6.50
2018-05-15T03:39:19.683Z,7.00
2018-05-15T03:41:48.387Z,15.63
2018-05-15T03:44:16.680Z,6.03
2018-05-15T03:46:45.119Z,6.60
2018-05-15T03:49:13.440Z,6.20
2018-05-15T03:51:42.184Z,4.53
2018-05-15T03:54:10.449Z,4.87
2018-05-15T03:56:38.755Z,4.67
2018-05-15T03:59:07.024Z,5.50
2018-05-15T04:05:00.463Z,5.50
2018-05-15T04:10:45.092Z,5.90
2018-05-15T04:13:13.351Z,5.63
2018-05-15T04:15:42.655Z,5.20
2018-05-15T04:18:10.949Z,5.10
2018-05-15T04:20:39.246Z,5.23
2018-05-15T04:23:07.515Z,5.93
2018-05-15T04:25:36.692Z,6.80
2018-05-15T04:28:05.107Z,5.93
2018-05-15T04:30:33.303Z,6.10
2018-05-15T04:33:02.317Z,7.80
2018-05-15T04:35:30.608Z,6.63
2018-05-15T04:37:58.875Z,5.13
2018-05-15T04:40:27.149Z,5.90
2018-05-15T04:42:56.241Z,6.27
2018-05-15T04:45:24.443Z,5.70
2018-05-15T04:47:52.786Z,5.43
2018-05-15T04:50:21.080Z,6.43
2018-05-15T04:52:49.339Z,5.77
2018-05-15T04:55:22.260Z,5.50
2018-05-15T04:57:50.553Z,6.80
2018-05-15T05:00:19.826Z,8.13
2018-05-15T05:02:48.110Z,6.90
2018-05-15T05:05:16.404Z,7.43
2018-05-15T05:07:44.704Z,6.30
2018-05-15T05:10:12.959Z,6.13
2018-05-15T05:12:41.251Z,6.20
2018-05-15T05:15:09.520Z,5.60
2018-05-15T05:17:37.815Z,5.87
2018-05-15T05:20:06.645Z,5.53
2018-05-15T05:22:34.910Z,6.43
2018-05-15T05:25:03.205Z,7.17
2018-05-15T05:27:32.251Z,6.57
2018-05-15T05:30:00.512Z,6.23
2018-05-15T05:32:28.810Z,6.10
2018-05-15T05:34:57.065Z,5.50
2018-05-15T05:37:25.369Z,6.33
2018-05-15T05:39:54.609Z,5.70
2018-05-15T05:42:22.899Z,6.57
2018-05-15T05:44:51.153Z,6.10
2018-05-15T05:47:20.234Z,6.50
2018-05-15T05:49:48.512Z,6.60
2018-05-15T05:52:16.772Z,7.13
2018-05-15T05:54:45.059Z,6.00
2018-05-15T05:57:13.355Z,7.30
2018-05-15T05:59:41.710Z,7.00
2018-05-15T06:02:14.366Z,6.30
2018-05-15T06:04:42.617Z,7.27
2018-05-15T06:07:10.891Z,7.00
2018-05-15T06:09:39.940Z,6.80
2018-05-15T06:12:08.215Z,7.23
2018-05-15T06:14:36.494Z,8.57
2018-05-15T06:17:04.759Z,8.50
2018-05-15T06:19:33.113Z,8.83
2018-05-15T06:22:01.343Z,8.93
2018-05-15T06:24:29.618Z,7.90
2018-05-15T06:26:57.898Z,9.60
2018-05-15T06:29:26.196Z,8.10
2018-05-15T06:31:54.492Z,7.97
2018-05-15T06:34:22.791Z,9.00
2018-05-15T06:36:51.048Z,7.80
2018-05-15T06:39:19.340Z,7.40
2018-05-15T06:41:47.639Z,7.57
2018-05-15T06:44:15.902Z,6.60
2018-05-15T06:46:44.182Z,7.00
2018-05-15T06:49:12.462Z,7.87
2018-05-15T06:51:40.737Z,7.50
2018-05-15T06:54:09.016Z,7.73
2018-05-15T06:56:37.293Z,7.20
2018-05-15T06:59:05.589Z,7.03
2018-05-15T07:01:33.902Z,7.23
2018-05-15T07:04:02.359Z,6.17
2018-05-15T07:06:32.538Z,6.10
2018-05-15T07:09:01.591Z,5.90
2018-05-15T07:11:29.875Z,6.10
2018-05-15T07:13:58.165Z,6.13
2018-05-15T07:16:26.426Z,5.80
2018-05-15T07:18:54.736Z,6.23
2018-05-15T07:21:23.897Z,6.43
2018-05-15T07:23:52.179Z,6.23
2018-05-15T07:26:20.484Z,5.10
2018-05-15T07:28:48.767Z,4.93
2018-05-15T07:31:17.080Z,6.70
2018-05-15T07:33:45.366Z,6.40
2018-05-15T07:36:13.668Z,5.33
2018-05-15T07:38:41.946Z,6.57
2018-05-15T07:41:10.208Z,6.17
2018-05-15T07:43:38.478Z,5.30
2018-05-15T07:46:06.773Z,5.80
2018-05-15T07:48:35.081Z,5.30
2018-05-15T07:51:04.123Z,4.50
2018-05-15T07:53:32.473Z,5.30
2018-05-15T07:56:00.696Z,5.27
2018-05-15T07:58:28.974Z,5.27
2018-05-15T08:00:57.261Z,5.60
2018-05-15T08:03:26.600Z,4.87
2018-05-15T08:05:55.620Z,5.23
2018-05-15T08:08:23.906Z,5.20
2018-05-15T08:10:52.224Z,5.57
2018-05-15T08:13:20.490Z,4.73
2018-05-15T08:15:48.777Z,5.20
2018-05-15T08:18:17.069Z,5.47
2018-05-15T08:20:46.268Z,6.30
2018-05-15T08:23:14.561Z,5.13
2018-05-15T08:25:43.615Z,4.37
2018-05-15T08:28:11.886Z,5.10
2018-05-15T08:30:40.192Z,4.77
2018-05-15T08:33:08.489Z,6.03
2018-05-15T08:35:36.774Z,4.97
2018-05-15T08:38:05.057Z,5.30
2018-05-15T08:40:33.344Z,5.37
2018-05-15T08:43:01.632Z,5.27
2018-05-15T08:45:30.844Z,5.27
2018-05-15T08:47:59.026Z,5.17
2018-05-15T08:50:27.339Z,4.83
2018-05-15T08:52:55.616Z,4.77
2018-05-15T08:55:23.893Z,5.20
2018-05-15T08:57:52.165Z,4.60
2018-05-15T09:00:20.482Z,4.90
2018-05-15T09:02:48.765Z,4.40
2018-05-15T09:05:17.043Z,4.40
2018-05-15T09:07:45.381Z,4.20
2018-05-15T09:10:13.670Z,4.10
2018-05-15T09:12:41.970Z,5.37
2018-05-15T09:15:10.235Z,4.50
2018-05-15T09:17:38.508Z,5.00
2018-05-15T09:20:06.792Z,4.83
2018-05-15T09:22:35.826Z,4.80
2018-05-15T09:25:04.114Z,4.80
2018-05-15T09:27:32.371Z,4.63
2018-05-15T09:30:00.644Z,4.80
2018-05-15T09:32:28.964Z,5.13
2018-05-15T09:34:57.236Z,5.43
2018-05-15T09:37:25.508Z,4.70
2018-05-15T09:39:53.796Z,5.13
2018-05-15T09:42:22.067Z,5.10
2018-05-15T09:44:50.369Z,4.57
2018-05-15T09:47:18.637Z,6.20
2018-05-15T09:49:46.915Z,4.83
2018-05-15T09:52:15.210Z,5.27
2018-05-15T09:54:43.492Z,5.00
2018-05-15T09:57:11.798Z,5.37
2018-05-15T09:59:40.080Z,4.50
2018-05-15T10:02:08.360Z,4.80
2018-05-15T10:04:36.637Z,5.17
2018-05-15T10:07:04.921Z,4.77
2018-05-15T10:09:33.230Z,4.03
2018-05-15T10:12:01.507Z,4.33
2018-05-15T10:14:29.781Z,4.57
2018-05-15T10:16:58.069Z,3.80
2018-05-15T10:19:26.350Z,3.83
2018-05-15T10:21:54.959Z,5.07
2018-05-15T10:24:23.999Z,3.83
2018-05-15T10:26:52.273Z,3.87
2018-05-15T10:29:20.551Z,4.30
2018-05-15T10:31:48.826Z,4.60
2018-05-15T10:34:17.141Z,4.57
2018-05-15T10:36:45.428Z,4.33
2018-05-15T10:39:13.702Z,4.23
2018-05-15T10:41:41.993Z,4.43
2018-05-15T10:44:11.050Z,4.40
2018-05-15T10:46:39.367Z,4.20
2018-05-15T10:49:08.425Z,4.23
2018-05-15T10:51:36.698Z,4.17
2018-05-15T10:54:05.784Z,4.10
2018-05-15T10:56:34.050Z,4.07
2018-05-15T10:59:02.341Z,3.50
2018-05-15T11:01:30.629Z,3.83
2018-05-15T11:03:58.900Z,4.10
2018-05-15T11:06:27.213Z,3.93
2018-05-15T11:08:55.489Z,3.63
2018-05-15T11:11:23.792Z,3.57
2018-05-15T11:13:52.828Z,3.03
2018-05-15T11:16:21.108Z,3.47
2018-05-15T11:18:49.379Z,3.33
2018-05-15T11:21:35.334Z,3.03
2018-05-15T11:27:13.812Z,3.70
2018-05-15T11:29:42.101Z,3.67
2018-05-15T11:32:10.375Z,3.90
2018-05-15T11:34:38.664Z,3.60
2018-05-15T11:37:06.965Z,3.63
2018-05-15T11:39:35.300Z,3.40
2018-05-15T11:42:03.599Z,3.77
2018-05-15T11:44:31.907Z,3.70
2018-05-15T11:47:02.200Z,3.90
2018-05-15T11:49:32.204Z,3.50
2018-05-15T11:52:01.251Z,3.90
2018-05-15T11:54:28.707Z,3.50
2018-05-15T11:56:56.991Z,4.20
2018-05-15T11:59:26.041Z,3.90
2018-05-15T12:01:54.300Z,3.40
2018-05-15T12:04:23.491Z,3.83
2018-05-15T12:06:51.782Z,3.13
2018-05-15T12:09:20.028Z,3.47
2018-05-15T12:11:48.327Z,3.47
2018-05-15T12:14:16.603Z,4.00
2018-05-15T12:16:44.911Z,4.33
2018-05-15T12:19:13.209Z,3.10
2018-05-15T12:21:41.485Z,3.73
2018-05-15T12:24:09.772Z,3.50
2018-05-15T12:26:38.036Z,4.00
2018-05-15T12:29:07.829Z,3.77
2018-05-15T12:31:36.121Z,3.50
2018-05-15T12:34:04.391Z,3.77
2018-05-15T12:36:34.594Z,4.10
2018-05-15T12:39:02.878Z,4.07
2018-05-15T12:41:31.255Z,4.10
2018-05-15T12:43:59.482Z,4.47
2018-05-15T12:46:27.758Z,4.47
2018-05-15T12:48:56.295Z,4.13
2018-05-15T12:51:24.695Z,4.20
2018-05-15T12:53:53.004Z,3.63
2018-05-15T12:56:21.281Z,5.03
2018-05-15T12:58:49.555Z,3.90
2018-05-15T13:01:17.850Z,4.37
2018-05-15T13:03:48.125Z,4.20
2018-05-15T13:06:16.447Z,4.07
2018-05-15T13:08:44.746Z,4.30
2018-05-15T13:11:13.021Z,4.80
2018-05-15T13:13:41.301Z,4.00
2018-05-15T13:16:09.578Z,4.07
2018-05-15T13:18:37.909Z,4.00
2018-05-15T13:21:06.163Z,3.43
2018-05-15T13:23:34.438Z,3.80
2018-05-15T13:26:02.721Z,3.47
2018-05-15T13:28:30.993Z,3.90
2018-05-15T13:30:59.291Z,4.00
2018-05-15T13:33:27.581Z,3.93
2018-05-15T13:35:55.859Z,3.40
2018-05-15T13:38:24.133Z,3.83
2018-05-15T13:40:52.434Z,3.40
2018-05-15T13:43:21.476Z,3.90
2018-05-15T13:45:49.744Z,3.90
2018-05-15T13:48:18.052Z,3.50
2018-05-15T13:50:46.320Z,3.33
2018-05-15T13:53:14.593Z,3.33
2018-05-15T13:55:42.855Z,3.10
2018-05-15T13:58:11.146Z,3.23
2018-05-15T14:00:39.429Z,3.47
2018-05-15T14:03:07.702Z,3.03
2018-05-15T14:05:35.999Z,3.37
2018-05-15T14:08:05.789Z,3.43
2018-05-15T14:10:34.061Z,3.23
2018-05-15T14:13:02.340Z,3.33
2018-05-15T14:15:30.610Z,3.40
2018-05-15T14:17:58.916Z,3.10
2018-05-15T14:20:27.220Z,3.20
2018-05-15T14:22:55.489Z,3.17
2018-05-15T14:25:23.818Z,3.53
2018-05-15T14:27:52.097Z,3.70
2018-05-15T14:30:20.435Z,3.60
2018-05-15T14:32:54.572Z,3.57
2018-05-15T14:35:22.889Z,3.23
2018-05-15T14:37:51.168Z,3.53
2018-05-15T14:40:19.426Z,3.30
2018-05-15T14:43:06.592Z,3.20
2018-05-15T14:45:34.891Z,3.63
2018-05-15T14:48:03.201Z,3.73
2018-05-15T14:50:31.468Z,3.27
2018-05-15T14:52:59.807Z,3.47
2018-05-15T14:55:28.100Z,3.17
2018-05-15T14:57:56.831Z,3.73
2018-05-15T15:00:26.015Z,3.83
2018-05-15T15:02:55.088Z,3.30
2018-05-15T15:05:23.356Z,3.63
2018-05-15T15:07:51.671Z,3.53
2018-05-15T15:28:30.734Z,4.70
2018-05-15T15:49:02.930Z,4.33
2018-05-15T16:09:39.457Z,3.63
2018-05-15T16:30:15.014Z,3.93
2018-05-15T16:50:46.599Z,4.60
2018-05-15T17:11:21.873Z,3.93
2018-05-15T17:32:03.413Z,3.57
2018-05-15T17:52:39.509Z,5.53
2018-05-15T18:13:12.695Z,3.10
2018-05-15T18:33:47.875Z,4.10
2018-05-15T18:54:20.073Z,4.30
2018-05-15T19:14:52.524Z,4.13
2018-05-15T19:35:31.547Z,5.27
2018-05-15T19:56:04.665Z,5.60
2018-05-15T20:16:39.012Z,4.60
2018-05-15T20:37:11.217Z,4.53
2018-05-15T20:57:45.644Z,4.97
2018-05-15T21:18:19.852Z,5.23
2018-05-15T21:38:51.811Z,4.47
2018-05-15T21:59:33.352Z,5.10
2018-05-15T22:20:21.266Z,4.93
2018-05-15T22:40:57.598Z,5.20
2018-05-15T23:01:52.918Z,5.53
